Time;durP1;ratioP1;P1;durP2;ratioP2;P2;SDS_P1;SDS_P2;PMS_P1;PMS_P2;Temp;Humidity;BMP_temperature;BMP_pressure;BME280_temperature;BME280_humidity;BME280_pressure;Samples;Min_cycle;Max_cycle;Signal;HPM_P1;HPM_P2
2021/12/05 00:21:49;;;;;;;17.08;9.18;;;;;;;-0.05;100.00;99138.63;7394838;19;20197;-44
2021/12/05 00:24:22;;;;;;;17.65;9.55;;;;;;;-0.02;100.00;99143.88;7400832;19;20189;-46
2021/12/05 00:26:58;;;;;;;15.27;8.75;;;;;;;0.00;100.00;99149.94;7395593;19;20190;-48
2021/12/05 00:29:34;;;;;;;13.13;8.55;;;;;;;0.04;100.00;99153.50;7397998;19;20119;-52
2021/12/05 00:46:21;;;;;;;15.00;8.77;;;;;;;-0.01;100.00;99165.91;7394267;19;20245;-49
2021/12/05 00:49:12;;;;;;;15.10;8.60;;;;;;;-0.04;100.00;99178.41;7399528;19;20123;-45
2021/12/05 01:03:19;;;;;;;12.45;8.10;;;;;;;0.11;100.00;99197.06;7398696;19;20391;-48
2021/12/05 01:06:44;;;;;;;14.85;7.68;;;;;;;0.17;100.00;99195.66;7393755;19;20194;-46
2021/12/05 01:09:27;;;;;;;14.73;8.75;;;;;;;0.28;100.00;99194.63;7398647;19;20140;-49
2021/12/05 01:14:52;;;;;;;14.60;7.95;;;;;;;0.35;100.00;99200.91;7393845;19;20127;-45
2021/12/05 01:17:27;;;;;;;15.30;8.45;;;;;;;0.46;100.00;99210.03;7397485;19;20155;-45
2021/12/05 01:19:58;;;;;;;15.18;8.93;;;;;;;0.68;100.00;99208.72;7394221;19;20186;-45
2021/12/05 01:22:31;;;;;;;12.98;8.25;;;;;;;0.42;100.00;99205.59;7399131;19;20171;-45
2021/12/05 01:25:16;;;;;;;13.48;8.35;;;;;;;0.56;100.00;99210.56;7393794;19;20245;-46
2021/12/05 01:27:52;;;;;;;11.60;7.53;;;;;;;0.79;100.00;99210.22;7397589;19;20206;-47
2021/12/05 01:30:29;;;;;;;12.52;8.05;;;;;;;0.71;100.00;99208.03;7397991;19;20217;-44
2021/12/05 01:33:06;;;;;;;12.63;7.22;;;;;;;0.50;100.00;99213.63;7405964;19;20141;-50
2021/12/05 01:35:51;;;;;;;12.82;7.95;;;;;;;0.42;100.00;99204.69;7400630;19;20186;-45
2021/12/05 01:38:31;;;;;;;15.43;7.97;;;;;;;0.29;100.00;99206.53;7406096;19;20131;-47
2021/12/05 01:41:40;;;;;;;12.70;7.40;;;;;;;0.25;100.00;99212.19;7400611;19;20254;-47
2021/12/05 01:44:41;;;;;;;13.10;7.93;;;;;;;0.23;100.00;99207.06;7409595;19;20123;-46
2021/12/05 01:56:04;;;;;;;11.55;7.10;;;;;;;0.16;100.00;99215.09;7400748;19;20245;-45
2021/12/05 02:12:34;;;;;;;12.95;8.77;;;;;;;0.19;100.00;99224.53;7407516;19;20143;-44
2021/12/05 02:15:26;;;;;;;13.27;8.32;;;;;;;0.18;100.00;99227.84;7398163;19;20183;-44
2021/12/05 02:31:46;;;;;;;12.60;7.90;;;;;;;0.17;100.00;99237.16;7399392;19;20182;-50
2021/12/05 02:34:29;;;;;;;15.07;8.15;;;;;;;0.11;100.00;99242.72;7402271;19;20125;-53
2021/12/05 02:37:14;;;;;;;14.18;7.80;;;;;;;0.10;100.00;99246.03;7401300;19;20213;-51
2021/12/05 02:39:53;;;;;;;14.32;8.27;;;;;;;0.11;100.00;99252.88;7399122;19;20142;-47
2021/12/05 02:42:31;;;;;;;13.27;7.43;;;;;;;0.10;100.00;99256.19;7403846;19;20171;-51
2021/12/05 02:45:00;;;;;;;13.18;7.65;;;;;;;0.03;100.00;99255.72;7398804;19;20533;-48
2021/12/05 02:47:31;;;;;;;15.57;8.70;;;;;;;0.07;100.00;99258.56;7403235;19;20159;-48
2021/12/05 02:50:04;;;;;;;14.48;8.32;;;;;;;0.10;100.00;99257.88;7398856;19;20194;-45
2021/12/05 02:52:41;;;;;;;13.30;8.20;;;;;;;0.04;100.00;99265.09;7403806;19;20131;-48
2021/12/05 02:55:13;;;;;;;15.00;9.15;;;;;;;0.11;100.00;99252.88;7397437;19;20196;-47
2021/12/05 02:57:52;;;;;;;15.18;8.95;;;;;;;0.10;100.00;99261.25;7401130;19;20210;-45
2021/12/05 03:00:34;;;;;;;15.10;8.85;;;;;;;0.06;100.00;99258.47;7398623;19;20792;-45
2021/12/05 03:03:05;;;;;;;15.63;8.93;;;;;;;0.07;100.00;99258.56;7403191;19;20123;-47
2021/12/05 03:05:42;;;;;;;17.40;9.75;;;;;;;0.11;100.00;99268.09;7398977;19;20213;-45
2021/12/05 03:08:14;;;;;;;15.85;9.18;;;;;;;0.08;100.00;99262.84;7400930;19;20165;-45
2021/12/05 03:10:44;;;;;;;13.68;8.50;;;;;;;0.19;100.00;99260.03;7398655;19;20190;-46
2021/12/05 03:13:14;;;;;;;17.33;9.63;;;;;;;0.20;100.00;99269.44;7402856;19;20183;-46
2021/12/05 03:15:44;;;;;;;19.55;10.40;;;;;;;0.18;100.00;99264.25;7397212;19;20483;-46
2021/12/05 03:18:13;;;;;;;20.65;10.68;;;;;;;0.12;100.00;99269.81;7400764;19;20210;-45
2021/12/05 03:20:43;;;;;;;15.18;9.23;;;;;;;0.11;100.00;99268.09;7398258;19;20599;-45
2021/12/05 03:23:15;;;;;;;19.33;10.45;;;;;;;0.16;100.00;99270.91;7402481;19;20123;-48
2021/12/05 03:25:45;;;;;;;16.33;9.38;;;;;;;0.17;100.00;99274.31;7397135;19;20474;-47
2021/12/05 03:28:14;;;;;;;15.75;9.32;;;;;;;0.06;100.00;99279.59;7400900;19;20155;-45
2021/12/05 03:30:45;;;;;;;15.90;8.60;;;;;;;0.10;100.00;99271.41;7398118;19;20190;-46
2021/12/05 03:33:14;;;;;;;16.80;10.00;;;;;;;0.13;100.00;99286.81;7402368;19;20178;-45
2021/12/05 03:35:44;;;;;;;18.80;11.10;;;;;;;0.09;100.00;99279.81;7396518;19;20189;-46
2021/12/05 03:38:16;;;;;;;21.35;10.55;;;;;;;0.13;100.00;99284.28;7400189;19;20222;-47
2021/12/05 03:40:46;;;;;;;17.50;9.68;;;;;;;0.07;100.00;99281.38;7396868;19;20242;-46
2021/12/05 03:43:17;;;;;;;17.92;10.50;;;;;;;0.11;100.00;99280.75;7404660;19;20138;-48
2021/12/05 03:45:50;;;;;;;18.77;10.23;;;;;;;0.16;100.00;99286.13;7398439;19;20636;-45
2021/12/05 03:48:19;;;;;;;17.02;9.85;;;;;;;0.13;100.00;99291.91;7402559;19;20159;-46
2021/12/05 03:50:49;;;;;;;18.25;10.30;;;;;;;0.12;100.00;99286.72;7396989;19;20517;-44
2021/12/05 03:53:22;;;;;;;16.90;9.85;;;;;;;0.15;100.00;99288.56;7399367;19;20175;-44
2021/12/05 03:55:54;;;;;;;18.45;10.70;;;;;;;0.18;100.00;99288.75;7396223;19;20186;-45
2021/12/05 03:58:24;;;;;;;20.77;11.35;;;;;;;0.18;100.00;99283.66;7401677;19;20482;-49
2021/12/05 04:00:56;;;;;;;20.10;11.23;;;;;;;0.17;100.00;99297.13;7396510;19;20253;-44
2021/12/05 04:03:27;;;;;;;22.00;11.88;;;;;;;0.12;100.00;99291.81;7401306;19;20402;-46
2021/12/05 04:05:57;;;;;;;26.85;12.55;;;;;;;0.18;100.00;99293.81;7396050;19;20196;-48
2021/12/05 04:08:30;;;;;;;21.17;12.13;;;;;;;0.09;100.00;99299.22;7404116;19;20140;-45
2021/12/05 04:11:05;;;;;;;22.58;12.90;;;;;;;0.15;100.00;99294.50;7396374;19;20189;-47
2021/12/05 04:13:35;;;;;;;23.15;11.95;;;;;;;0.12;100.00;99300.28;7400974;19;20133;-46
2021/12/05 04:16:07;;;;;;;21.77;10.80;;;;;;;0.07;100.00;99304.22;7395244;19;20193;-44
2021/12/05 04:18:37;;;;;;;20.98;11.82;;;;;;;0.11;100.00;99303.59;7401082;19;20122;-46
2021/12/05 04:21:08;;;;;;;24.40;12.57;;;;;;;0.19;100.00;99313.31;7395772;19;20190;-47
2021/12/05 04:23:40;;;;;;;22.13;11.60;;;;;;;0.20;100.00;99317.63;7401008;19;20119;-45
2021/12/05 04:26:09;;;;;;;24.13;12.57;;;;;;;0.22;100.00;99321.13;7394808;19;20588;-47
2021/12/05 04:28:40;;;;;;;23.98;12.23;;;;;;;0.12;100.00;99322.25;7400752;19;20127;-46
2021/12/05 04:31:10;;;;;;;21.55;12.40;;;;;;;0.20;100.00;99335.41;7395235;19;20640;-46
2021/12/05 04:33:40;;;;;;;24.13;12.02;;;;;;;0.18;100.00;99342.00;7400379;19;20131;-45
2021/12/05 04:36:10;;;;;;;29.38;12.75;;;;;;;0.11;100.00;99344.19;7394619;19;20189;-52
2021/12/05 04:38:43;;;;;;;24.38;12.77;;;;;;;0.10;100.00;99356.78;7400247;19;20123;-49
2021/12/05 04:41:12;;;;;;;25.35;13.23;;;;;;;0.08;100.00;99354.16;7395288;19;20241;-46
2021/12/05 04:43:42;;;;;;;30.25;13.27;;;;;;;0.13;100.00;99355.31;7400028;19;20540;-50
2021/12/05 04:46:15;;;;;;;25.88;12.70;;;;;;;0.12;100.00;99358.63;7394340;19;20258;-46
2021/12/05 04:48:47;;;;;;;27.38;13.35;;;;;;;0.09;100.00;99366.06;7401976;19;20127;-45
2021/12/05 04:51:16;;;;;;;25.08;12.35;;;;;;;0.08;100.00;99366.84;7394665;19;20187;-46
2021/12/05 04:53:48;;;;;;;23.42;11.15;;;;;;;0.03;100.00;99365.66;7399868;19;20175;-45
2021/12/05 04:56:18;;;;;;;27.77;14.45;;;;;;;0.09;100.00;99372.78;7393047;19;20210;-45
2021/12/05 04:58:48;;;;;;;32.78;14.90;;;;;;;0.09;100.00;99366.06;7399840;19;20183;-44
2021/12/05 05:01:18;;;;;;;29.38;13.98;;;;;;;0.11;100.00;99363.63;7394278;19;20201;-47
2021/12/05 05:03:48;;;;;;;33.20;14.25;;;;;;;0.11;100.00;99367.00;7400831;19;20123;-46
2021/12/05 05:06:19;;;;;;;26.65;14.52;;;;;;;0.17;100.00;99379.22;7393999;19;20194;-45
2021/12/05 05:08:55;;;;;;;32.15;14.20;;;;;;;0.18;100.00;99385.16;7399464;19;20135;-47
2021/12/05 05:11:26;;;;;;;28.63;13.70;;;;;;;0.09;100.00;99388.00;7393322;19;20186;-48
2021/12/05 05:13:56;;;;;;;36.28;15.70;;;;;;;0.15;100.00;99395.13;7399253;19;20170;-46
2021/12/05 05:16:26;;;;;;;31.17;15.07;;;;;;;0.17;100.00;99398.63;7392463;19;20194;-45
2021/12/05 05:18:58;;;;;;;36.97;15.30;;;;;;;0.19;100.00;99407.19;7399438;19;20150;-48
2021/12/05 05:21:39;;;;;;;33.60;15.02;;;;;;;0.11;100.00;99400.00;7393952;19;20612;-44
2021/12/05 05:24:42;;;;;;;40.35;14.05;;;;;;;0.28;100.00;99406.88;7398813;19;20131;-47
2021/12/05 05:43:42;;;;;;;38.38;16.70;;;;;;;0.21;100.00;99436.09;7398092;19;20123;-47
2021/12/05 05:46:15;;;;;;;35.00;16.33;;;;;;;0.23;100.00;99431.97;7393434;19;20194;-46
2021/12/05 05:48:50;;;;;;;34.63;15.57;;;;;;;0.28;100.00;99434.78;7401708;19;20531;-46
2021/12/05 05:51:22;;;;;;;40.47;16.02;;;;;;;0.25;100.00;99443.09;7393346;19;20192;-48
2021/12/05 05:53:51;;;;;;;36.60;16.02;;;;;;;0.30;100.00;99446.78;7402050;19;20445;-48
2021/12/05 05:56:27;;;;;;;41.08;17.08;;;;;;;0.32;100.00;99454.50;7390905;19;20607;-48
2021/12/05 05:59:03;;;;;;;33.85;16.08;;;;;;;0.36;100.00;99454.78;7398190;19;20139;-46
2021/12/05 06:01:59;;;;;;;36.72;17.42;;;;;;;0.32;100.00;99457.06;7393258;19;20597;-45
2021/12/05 06:04:26;;;;;;;37.58;15.07;;;;;;;0.27;100.00;99466.91;7393456;19;20140;-46
2021/12/05 06:06:55;;;;;;;33.05;15.40;;;;;;;0.24;100.00;99466.72;7395482;19;20161;-49
2021/12/05 06:09:25;;;;;;;52.05;23.35;;;;;;;0.21;100.00;99466.53;7397060;19;20457;-48
2021/12/05 06:11:57;;;;;;;107.80;54.97;;;;;;;0.21;100.00;99471.59;7396636;19;20234;-45
2021/12/05 06:14:28;;;;;;;58.08;28.38;;;;;;;0.35;100.00;99473.34;7397700;19;20140;-46
2021/12/05 06:16:58;;;;;;;41.97;17.40;;;;;;;0.37;100.00;99474.31;7401943;19;20600;-48
2021/12/05 06:19:28;;;;;;;32.22;15.30;;;;;;;0.32;100.00;99473.16;7400266;19;20123;-47
2021/12/05 06:21:57;;;;;;;35.22;15.73;;;;;;;0.31;100.00;99473.06;7404358;19;20444;-47
2021/12/05 06:24:27;;;;;;;31.88;14.63;;;;;;;0.27;100.00;99474.53;7404938;19;20182;-44
2021/12/05 06:27:01;;;;;;;36.22;15.93;;;;;;;0.32;100.00;99478.25;7401949;19;20197;-45
2021/12/05 06:29:35;;;;;;;30.23;15.07;;;;;;;0.33;100.00;99472.38;7400719;19;20147;-45
2021/12/05 06:32:33;;;;;;;30.38;15.27;;;;;;;0.33;100.00;99486.72;7403863;19;20128;-45
2021/12/05 06:38:00;;;;;;;34.58;16.23;;;;;;;0.27;100.00;99484.69;7401365;19;20167;-47
2021/12/05 06:40:53;;;;;;;35.15;16.00;;;;;;;0.29;100.00;99488.19;7399342;19;20193;-45
2021/12/05 06:46:12;;;;;;;29.67;13.77;;;;;;;0.33;100.00;99492.69;7397859;19;20186;-45
2021/12/05 06:48:43;;;;;;;29.83;14.88;;;;;;;0.34;100.00;99499.50;7404575;19;20390;-44
2021/12/05 06:51:13;;;;;;;34.65;15.38;;;;;;;0.36;100.00;99513.16;7399686;19;20186;-46
2021/12/05 06:53:43;;;;;;;33.42;15.02;;;;;;;0.30;100.00;99509.38;7403614;19;20186;-46
2021/12/05 06:56:13;;;;;;;30.85;15.52;;;;;;;0.33;100.00;99512.97;7397171;19;20245;-45
2021/12/05 06:58:45;;;;;;;30.63;15.07;;;;;;;0.38;100.00;99516.69;7403653;19;20140;-47
2021/12/05 07:01:15;;;;;;;33.47;15.55;;;;;;;0.36;100.00;99517.38;7398232;19;20182;-46
2021/12/05 07:03:49;;;;;;;32.33;15.75;;;;;;;0.40;100.00;99532.88;7403751;19;20123;-44
2021/12/05 07:06:24;;;;;;;30.77;15.70;;;;;;;0.40;100.00;99530.34;7397359;19;20190;-46
2021/12/05 07:08:57;;;;;;;35.28;17.40;;;;;;;0.38;100.00;99541.19;7402986;19;20123;-44
2021/12/05 07:11:32;;;;;;;35.65;17.80;;;;;;;0.39;100.00;99541.28;7398242;19;20254;-46
2021/12/05 07:17:03;;;;;;;36.00;16.05;;;;;;;0.39;100.00;99553.97;7399109;19;20210;-45
2021/12/05 07:19:51;;;;;;;33.70;16.30;;;;;;;0.37;100.00;99552.97;7396094;19;20439;-50
2021/12/05 07:22:25;;;;;;;44.13;19.75;;;;;;;0.34;100.00;99567.13;7402936;19;20184;-44
2021/12/05 07:25:05;;;;;;;32.05;15.98;;;;;;;0.38;100.00;99574.16;7398035;19;20190;-46
2021/12/05 07:41:20;;;;;;;34.03;16.95;;;;;;;0.45;100.00;99590.69;7397144;19;20192;-52
2021/12/05 07:43:50;;;;;;;45.15;20.80;;;;;;;0.51;100.00;99588.53;7402088;19;20119;-49
2021/12/05 07:46:22;;;;;;;34.05;17.40;;;;;;;0.51;100.00;99588.53;7396120;19;20288;-50
2021/12/05 07:48:52;;;;;;;40.47;19.90;;;;;;;0.57;100.00;99588.91;7403149;19;20179;-49
2021/12/05 07:51:29;;;;;;;47.38;22.70;;;;;;;0.56;100.00;99594.75;7397049;19;20258;-48
2021/12/05 07:54:09;;;;;;;38.90;17.58;;;;;;;0.58;100.00;99599.94;7403218;19;20123;-45
2021/12/05 07:56:45;;;;;;;38.85;17.73;;;;;;;0.57;100.00;99609.22;7399388;19;20267;-43
2021/12/05 07:59:27;;;;;;;32.63;15.27;;;;;;;0.47;100.00;99611.94;7401378;19;20189;-44
2021/12/05 08:15:40;;;;;;;32.80;15.95;;;;;;;0.37;100.00;99651.94;7395986;19;20807;-45
2021/12/05 08:18:12;;;;;;;33.22;16.05;;;;;;;0.39;100.00;99650.41;7399220;19;20150;-49
2021/12/05 08:20:44;;;;;;;30.83;16.30;;;;;;;0.39;100.00;99658.03;7395981;19;20603;-45
2021/12/05 08:23:16;;;;;;;29.30;15.18;;;;;;;0.40;100.00;99664.84;7400598;19;20139;-44
2021/12/05 08:25:54;;;;;;;33.75;15.95;;;;;;;0.44;100.00;99668.47;7396012;19;20186;-50
2021/12/05 08:28:37;;;;;;;32.03;16.08;;;;;;;0.44;100.00;99671.00;7400535;19;20127;-44
2021/12/05 08:31:13;;;;;;;33.75;16.63;;;;;;;0.44;100.00;99677.72;7395521;19;20532;-45
2021/12/05 08:34:00;;;;;;;32.30;15.63;;;;;;;0.38;100.00;99681.66;7400348;19;20130;-44
2021/12/05 08:36:55;;;;;;;32.05;17.00;;;;;;;0.45;100.00;99689.66;7394060;19;20194;-47
2021/12/05 09:21:03;;;;;;;30.02;16.30;;;;;;;0.41;100.00;99746.94;7394100;19;20283;-49
2021/12/05 09:23:52;;;;;;;28.73;14.95;;;;;;;0.36;100.00;99749.19;7398617;19;20459;-49
2021/12/05 09:26:45;;;;;;;29.13;14.70;;;;;;;0.42;100.00;99756.34;7393553;19;20479;-47
2021/12/05 10:10:31;;;;;;;31.08;17.17;;;;;;;0.44;100.00;99825.84;7399878;19;20203;-46
2021/12/05 10:13:18;;;;;;;29.33;15.95;;;;;;;0.45;100.00;99834.34;7404987;19;20146;-46
2021/12/05 10:16:10;;;;;;;27.58;15.20;;;;;;;0.43;100.00;99829.16;7399756;19;20197;-47
2021/12/05 10:35:58;;;;;;;29.92;16.13;;;;;;;0.60;100.00;99837.91;7398518;19;20253;-49
2021/12/05 10:38:33;;;;;;;31.63;16.45;;;;;;;0.52;100.00;99844.13;7402702;19;20146;-49
2021/12/05 10:41:21;;;;;;;30.98;16.20;;;;;;;0.57;100.00;99846.97;7399289;19;20190;-47
2021/12/05 10:43:53;;;;;;;27.23;15.90;;;;;;;0.55;100.00;99846.00;7404079;19;20175;-45
2021/12/05 10:46:26;;;;;;;32.22;16.25;;;;;;;0.53;100.00;99844.22;7397811;19;20503;-50
2021/12/05 10:49:00;;;;;;;29.27;15.98;;;;;;;0.58;100.00;99852.16;7404002;19;20141;-48
2021/12/05 10:51:32;;;;;;;30.30;15.98;;;;;;;0.65;100.00;99846.72;7398762;19;20207;-50
2021/12/05 10:54:07;;;;;;;35.72;18.00;;;;;;;0.74;100.00;99849.00;7403851;19;20116;-45
2021/12/05 10:56:38;;;;;;;39.80;21.88;;;;;;;0.77;100.00;99855.94;7397561;19;20242;-53
2021/12/05 10:59:09;;;;;;;39.05;20.73;;;;;;;0.82;100.00;99858.78;7404082;19;20127;-52
2021/12/05 11:01:43;;;;;;;36.30;19.55;;;;;;;0.89;100.00;99864.38;7397219;19;20504;-53
2021/12/05 11:04:14;;;;;;;34.83;18.73;;;;;;;0.97;100.00;99869.06;7403699;19;20171;-47
2021/12/05 11:06:52;;;;;;;38.63;19.55;;;;;;;0.94;100.00;99875.69;7397429;19;20475;-45
2021/12/05 11:09:25;;;;;;;33.30;18.83;;;;;;;0.93;100.00;99883.25;7402934;19;20119;-45
2021/12/05 11:11:57;;;;;;;33.20;17.13;;;;;;;0.94;100.00;99888.41;7402900;19;20196;-45
2021/12/05 11:14:29;;;;;;;32.03;17.67;;;;;;;1.03;100.00;99884.72;7401387;19;20388;-49
2021/12/05 11:17:07;;;;;;;35.80;18.95;;;;;;;1.03;100.00;99892.34;7403637;19;20182;-48
2021/12/05 11:19:40;;;;;;;32.20;17.80;;;;;;;1.15;100.00;99888.06;7395859;19;20119;-50
2021/12/05 11:22:17;;;;;;;33.38;18.80;;;;;;;1.08;100.00;99891.00;7402537;19;20194;-46
2021/12/05 11:24:50;;;;;;;37.08;20.15;;;;;;;1.06;100.00;99895.06;7398594;19;20140;-47
2021/12/05 11:27:32;;;;;;;57.15;30.60;;;;;;;1.35;100.00;99893.56;7400723;19;20159;-44
2021/12/05 11:30:09;;;;;;;36.50;18.80;;;;;;;1.13;100.00;99896.38;7397705;19;20273;-44
2021/12/05 11:32:45;;;;;;;49.25;24.27;;;;;;;1.17;100.00;99896.66;7402516;19;20395;-44
2021/12/05 11:35:21;;;;;;;40.60;20.10;;;;;;;1.09;100.00;99900.38;7397752;19;20520;-45
2021/12/05 11:37:53;;;;;;;45.22;22.25;;;;;;;1.13;100.00;99901.47;7400446;19;20463;-44
2021/12/05 11:40:24;;;;;;;36.38;19.75;;;;;;;1.10;100.00;99901.25;7397428;19;20187;-45
2021/12/05 11:42:56;;;;;;;33.90;18.67;;;;;;;1.01;100.00;99911.66;7402140;19;20185;-49
2021/12/05 11:45:26;;;;;;;36.37;19.90;;;;;;;1.06;100.00;99912.88;7396612;19;20487;-47
2021/12/05 11:47:59;;;;;;;36.88;19.63;;;;;;;1.02;100.00;99919.41;7402211;19;20478;-51
2021/12/05 11:50:34;;;;;;;38.45;20.35;;;;;;;1.04;100.00;99919.50;7396861;19;20242;-47
2021/12/05 11:53:04;;;;;;;37.00;20.00;;;;;;;1.02;100.00;99914.31;7401939;19;20200;-52
2021/12/05 11:55:34;;;;;;;37.40;19.73;;;;;;;1.04;100.00;99922.91;7395941;19;20194;-46
2021/12/05 11:58:04;;;;;;;33.50;19.48;;;;;;;0.99;100.00;99925.94;7400014;19;20491;-46
2021/12/05 12:00:33;;;;;;;44.40;22.13;;;;;;;0.87;100.00;99923.47;7398325;19;20250;-47
2021/12/05 12:03:06;;;;;;;50.92;26.02;;;;;;;0.98;100.00;99927.63;7401433;19;20119;-47
2021/12/05 12:05:37;;;;;;;40.67;21.38;;;;;;;1.03;100.00;99930.47;7395733;19;20191;-49
2021/12/05 12:08:12;;;;;;;37.42;21.25;;;;;;;1.08;100.00;99929.13;7403675;19;20163;-45
2021/12/05 12:10:43;;;;;;;38.95;19.63;;;;;;;1.03;100.00;99935.53;7396383;19;20594;-49
2021/12/05 12:13:18;;;;;;;36.35;19.52;;;;;;;0.93;100.00;99940.00;7399186;19;20126;-46
2021/12/05 12:15:58;;;;;;;41.72;20.95;;;;;;;1.01;100.00;99940.50;7395535;19;20186;-50
2021/12/05 12:18:33;;;;;;;37.60;20.23;;;;;;;1.08;100.00;99934.19;7400462;19;20127;-46
2021/12/05 12:21:05;;;;;;;35.83;19.40;;;;;;;1.15;100.00;99935.47;7396072;19;20182;-47
2021/12/05 12:23:35;;;;;;;39.80;21.50;;;;;;;1.11;100.00;99934.38;7400561;19;20123;-47
2021/12/05 12:26:08;;;;;;;41.15;20.48;;;;;;;1.11;100.00;99934.38;7395918;19;20199;-48
2021/12/05 12:28:38;;;;;;;48.13;23.77;;;;;;;1.17;100.00;99934.78;7400746;19;20116;-48
2021/12/05 12:31:11;;;;;;;50.42;25.35;;;;;;;1.17;100.00;99938.97;7395764;19;20441;-49
2021/12/05 12:33:46;;;;;;;41.13;21.17;;;;;;;1.20;100.00;99936.66;7400129;19;20174;-46
2021/12/05 12:36:16;;;;;;;48.22;24.13;;;;;;;1.18;100.00;99935.69;7394553;19;20269;-50
2021/12/05 12:38:46;;;;;;;50.40;25.77;;;;;;;1.25;100.00;99940.38;7399773;19;20127;-50
2021/12/05 12:41:19;;;;;;;49.93;25.37;;;;;;;1.25;100.00;99947.13;7395563;19;20190;-45
2021/12/05 12:43:56;;;;;;;44.83;23.55;;;;;;;1.28;100.00;99948.19;7399830;19;20838;-46
2021/12/05 12:46:31;;;;;;;48.33;24.90;;;;;;;1.26;100.00;99948.88;7394064;19;20650;-48
2021/12/05 12:49:31;;;;;;;47.97;23.42;;;;;;;1.31;100.00;99955.16;7399938;19;20130;-47
2021/12/05 12:52:03;;;;;;;43.83;22.70;;;;;;;1.31;100.00;99957.69;7399037;19;20192;-48
2021/12/05 12:54:36;;;;;;;42.03;21.33;;;;;;;1.11;100.00;99969.97;7395479;19;20191;-46
2021/12/05 12:57:14;;;;;;;48.13;25.67;;;;;;;1.17;100.00;99967.81;7397437;19;20412;-47
2021/12/05 12:59:47;;;;;;;40.22;21.33;;;;;;;1.08;100.00;99970.63;7394092;19;20459;-46
2021/12/05 13:02:36;;;;;;;38.67;19.77;;;;;;;1.03;100.00;99974.50;7399667;19;20139;-47
2021/12/05 13:05:24;;;;;;;41.78;21.65;;;;;;;1.11;100.00;99979.22;7394854;19;20190;-46
2021/12/05 13:10:39;;;;;;;39.77;21.40;;;;;;;1.04;100.00;99985.56;7396878;19;20514;-46
2021/12/05 13:13:16;;;;;;;39.47;20.80;;;;;;;1.07;100.00;99988.31;7399401;19;20389;-45
2021/12/05 13:15:50;;;;;;;37.10;19.93;;;;;;;1.00;100.00;99991.22;7394032;19;20245;-47
2021/12/05 13:18:29;;;;;;;39.17;20.17;;;;;;;0.99;100.00;99995.44;7397329;19;20447;-44
2021/12/05 13:21:06;;;;;;;43.20;21.63;;;;;;;0.95;100.00;99993.44;7394295;19;20185;-48
2021/12/05 13:23:39;;;;;;;42.60;21.13;;;;;;;0.97;100.00;99991.03;7399103;19;20450;-47
2021/12/05 13:26:27;;;;;;;42.30;22.35;;;;;;;1.04;100.00;99995.75;7400498;19;20448;-45
2021/12/05 13:28:59;;;;;;;43.72;21.75;;;;;;;1.07;100.00;99998.47;7406849;19;20148;-48
2021/12/05 13:31:49;;;;;;;43.90;23.00;;;;;;;1.02;100.00;100003.25;7401431;19;20635;-45
2021/12/05 13:34:28;;;;;;;42.60;21.90;;;;;;;1.00;100.00;100006.47;7406502;19;20409;-48
2021/12/05 13:37:17;;;;;;;40.70;20.70;;;;;;;0.95;100.00;100011.22;7403376;19;20431;-51
2021/12/05 13:39:48;;;;;;;45.17;23.40;;;;;;;0.94;100.00;100009.47;7400012;19;20383;-49
2021/12/05 13:42:21;;;;;;;45.97;22.35;;;;;;;0.93;100.00;100015.34;7406120;19;20387;-49
2021/12/05 13:45:07;;;;;;;39.88;21.25;;;;;;;0.92;100.00;100018.66;7401104;19;20203;-50
2021/12/05 13:47:40;;;;;;;40.80;20.92;;;;;;;0.84;100.00;100017.22;7403135;19;20155;-51
2021/12/05 13:50:28;;;;;;;40.38;20.65;;;;;;;0.79;100.00;100033.06;7401276;19;20187;-51
2021/12/05 13:53:17;;;;;;;44.55;22.25;;;;;;;0.71;100.00;100028.22;7405746;19;20125;-48
2021/12/05 13:55:49;;;;;;;41.17;20.25;;;;;;;0.72;100.00;100030.84;7400913;19;20594;-51
2021/12/05 13:58:21;;;;;;;43.33;20.70;;;;;;;0.62;100.00;100033.53;7407293;19;20167;-52
2021/12/05 14:00:55;;;;;;;41.88;21.15;;;;;;;0.57;100.00;100040.84;7399794;19;20194;-49
2021/12/05 14:03:41;;;;;;;40.80;21.92;;;;;;;0.56;100.00;100050.88;7405396;19;20130;-50
2021/12/05 14:06:39;;;;;;;44.63;20.67;;;;;;;0.49;100.00;100057.16;7399449;19;20188;-48
2021/12/05 14:09:16;;;;;;;38.42;19.30;;;;;;;0.48;100.00;100050.31;7404041;19;20546;-53
2021/12/05 14:11:55;;;;;;;38.65;18.98;;;;;;;0.48;100.00;100068.09;7401752;19;20210;-51
2021/12/05 14:14:27;;;;;;;38.08;19.83;;;;;;;0.34;100.00;100068.00;7405304;19;20127;-50
2021/12/05 14:16:59;;;;;;;35.88;18.38;;;;;;;0.30;100.00;100066.00;7401642;19;20249;-52
2021/12/05 14:19:32;;;;;;;36.92;17.85;;;;;;;0.39;100.00;100070.84;7402619;19;20153;-48
2021/12/05 14:22:03;;;;;;;36.78;19.52;;;;;;;0.25;100.00;100065.66;7404124;19;20130;-44
2021/12/05 14:24:38;;;;;;;33.63;17.92;;;;;;;0.23;100.00;100079.00;7400517;19;20170;-43
2021/12/05 14:27:10;;;;;;;39.45;19.75;;;;;;;0.28;100.00;100085.31;7402306;19;20154;-46
2021/12/05 14:29:41;;;;;;;42.35;21.10;;;;;;;0.25;100.00;100082.53;7399935;19;20126;-46
2021/12/05 14:32:14;;;;;;;33.72;18.02;;;;;;;0.21;100.00;100090.72;7404200;19;20119;-51
2021/12/05 14:34:45;;;;;;;76.72;38.40;;;;;;;0.24;100.00;100101.06;7400221;19;20138;-49
2021/12/05 14:37:17;;;;;;;35.45;18.27;;;;;;;0.21;100.00;100103.41;7400714;19;20202;-45
2021/12/05 14:39:50;;;;;;;34.92;17.52;;;;;;;0.25;100.00;100106.28;7398458;19;20306;-48
2021/12/05 14:42:27;;;;;;;32.78;16.92;;;;;;;0.26;100.00;100109.72;7404322;19;20130;-45
2021/12/05 14:45:00;;;;;;;30.17;16.52;;;;;;;0.21;100.00;100121.16;7399521;19;20456;-44
2021/12/05 14:47:33;;;;;;;51.50;18.40;;;;;;;0.29;100.00;100125.13;7401520;19;20169;-50
2021/12/05 14:50:07;;;;;;;34.30;16.90;;;;;;;0.22;100.00;100133.09;7399818;19;20203;-45
2021/12/05 14:52:39;;;;;;;33.85;18.05;;;;;;;0.23;100.00;100135.75;7404080;19;20175;-47
2021/12/05 14:55:17;;;;;;;32.47;16.08;;;;;;;0.22;100.00;100138.16;7398993;19;20198;-48
2021/12/05 14:57:50;;;;;;;37.13;19.30;;;;;;;0.27;100.00;100139.38;7401301;19;20158;-45
2021/12/05 15:00:24;;;;;;;33.35;17.52;;;;;;;0.23;100.00;100139.91;7398163;19;20190;-46
2021/12/05 15:03:01;;;;;;;33.67;17.63;;;;;;;0.25;100.00;100138.38;7403513;19;20133;-49
2021/12/05 15:05:32;;;;;;;38.58;20.55;;;;;;;0.24;100.00;100147.66;7397926;19;20190;-46
2021/12/05 15:08:02;;;;;;;35.67;18.25;;;;;;;0.24;100.00;100149.28;7400959;19;20154;-47
2021/12/05 15:10:34;;;;;;;31.42;17.05;;;;;;;0.18;100.00;100151.38;7399091;19;20258;-50
2021/12/05 15:13:04;;;;;;;35.45;18.35;;;;;;;0.21;100.00;100152.47;7404579;19;20127;-48
2021/12/05 15:15:34;;;;;;;37.22;17.80;;;;;;;0.18;100.00;100154.81;7397661;19;20253;-46
2021/12/05 15:18:04;;;;;;;40.15;18.33;;;;;;;0.18;100.00;100164.97;7401118;19;20218;-46
2021/12/05 15:20:36;;;;;;;37.03;19.35;;;;;;;0.21;100.00;100170.25;7396974;19;20512;-46
2021/12/05 15:23:08;;;;;;;33.75;17.80;;;;;;;0.10;100.00;100169.47;7403009;19;20410;-44
2021/12/05 15:25:43;;;;;;;33.85;17.80;;;;;;;0.12;100.00;100178.06;7397021;19;20183;-50
2021/12/05 15:28:14;;;;;;;35.60;17.48;;;;;;;0.05;100.00;100170.75;7400675;19;20162;-49
2021/12/05 15:30:46;;;;;;;36.70;17.70;;;;;;;0.01;100.00;100184.00;7398150;19;20590;-46
2021/12/05 15:33:18;;;;;;;38.42;18.60;;;;;;;0.07;100.00;100186.13;7402579;19;20130;-47
2021/12/05 15:35:48;;;;;;;31.05;16.30;;;;;;;0.13;100.00;100190.00;7396700;19;20186;-46
2021/12/05 15:38:23;;;;;;;36.17;17.63;;;;;;;0.08;100.00;100187.88;7400405;19;20549;-49
2021/12/05 15:40:57;;;;;;;32.28;17.65;;;;;;;0.05;100.00;100196.13;7396053;19;20245;-47
2021/12/05 15:43:28;;;;;;;35.58;17.27;;;;;;;0.07;100.00;100207.31;7402388;19;20115;-47
2021/12/05 15:46:00;;;;;;;34.60;16.83;;;;;;;0.09;100.00;100210.81;7396518;19;20185;-51
2021/12/05 15:48:31;;;;;;;38.33;18.50;;;;;;;0.10;100.00;100210.06;7399454;19;20532;-47
2021/12/05 15:51:03;;;;;;;33.80;17.25;;;;;;;0.13;100.00;100215.38;7396992;19;20584;-48
2021/12/05 15:53:36;;;;;;;34.80;18.17;;;;;;;0.09;100.00;100222.63;7401899;19;20123;-45